createdAt,value
2023-02-08T00:01:59.295Z,13.93
2023-02-08T00:06:01.055Z,15.90
2023-02-08T00:10:05.112Z,12.20
2023-02-08T00:14:08.719Z,14.23
2023-02-08T00:18:10.669Z,16.60
2023-02-08T00:22:12.461Z,13.48
2023-02-08T00:26:15.225Z,13.30
2023-02-08T00:30:17.019Z,15.27
2023-02-08T00:34:18.681Z,12.63
2023-02-08T00:38:20.344Z,14.87
2023-02-08T00:42:22.015Z,15.52
2023-02-08T00:46:23.827Z,14.55
2023-02-08T00:50:25.820Z,13.52
2023-02-08T00:54:27.547Z,16.52
2023-02-08T00:58:29.217Z,10.50
2023-02-08T01:02:31.047Z,17.65
2023-02-08T01:06:33.274Z,13.15
2023-02-08T01:10:34.992Z,15.05
2023-02-08T01:14:38.807Z,13.23
2023-02-08T01:18:42.381Z,11.63
2023-02-08T01:22:44.034Z,13.55
2023-02-08T01:26:45.950Z,13.35
2023-02-08T01:30:47.622Z,16.77
2023-02-08T01:34:49.276Z,12.25
2023-02-08T01:38:51.206Z,12.25
2023-02-08T01:42:52.806Z,13.40
2023-02-08T01:46:54.431Z,11.40
2023-02-08T01:51:01.066Z,12.27
2023-02-08T01:59:17.840Z,13.45
2023-02-08T02:03:22.080Z,16.90
2023-02-08T02:07:28.115Z,12.23
2023-02-08T02:11:29.821Z,11.18
2023-02-08T02:15:31.514Z,13.85
2023-02-08T02:20:00.267Z,12.00
2023-02-08T02:24:56.609Z,12.98
2023-02-08T02:29:26.839Z,13.32
2023-02-08T02:33:57.507Z,16.10
2023-02-08T02:38:36.932Z,14.30
2023-02-08T02:43:16.007Z,14.57
2023-02-08T02:47:20.402Z,12.15
2023-02-08T02:51:41.818Z,12.88
2023-02-08T02:55:49.818Z,13.55
2023-02-08T02:59:52.015Z,12.27
2023-02-08T03:03:54.362Z,16.95
2023-02-08T03:08:14.722Z,12.13
2023-02-08T03:12:37.145Z,12.32
2023-02-08T03:17:00.143Z,10.23
2023-02-08T03:21:39.301Z,12.55
2023-02-08T03:25:49.809Z,14.38
2023-02-08T03:29:54.414Z,10.73
2023-02-08T03:34:15.120Z,12.32
2023-02-08T03:38:23.256Z,11.55
2023-02-08T03:42:27.864Z,11.35
2023-02-08T03:46:33.765Z,11.20
2023-02-08T03:50:39.728Z,13.57
2023-02-08T03:54:55.901Z,12.00
2023-02-08T03:59:04.316Z,12.75
2023-02-08T04:03:17.831Z,11.38
2023-02-08T04:07:20.179Z,12.77
2023-02-08T04:11:22.133Z,13.23
2023-02-08T04:15:23.840Z,11.80
2023-02-08T04:19:25.516Z,11.40
2023-02-08T04:23:27.142Z,11.20
2023-02-08T04:27:28.779Z,14.45
2023-02-08T04:31:30.617Z,13.73
2023-02-08T04:35:32.360Z,12.13
2023-02-08T04:39:34.092Z,9.88
2023-02-08T04:43:35.792Z,9.85
2023-02-08T04:47:37.499Z,11.43
2023-02-08T04:51:39.179Z,9.70
2023-02-08T04:55:40.848Z,10.90
2023-02-08T04:59:42.816Z,11.15
2023-02-08T05:03:44.530Z,10.35
2023-02-08T05:07:46.190Z,13.05
2023-02-08T05:11:47.897Z,11.95
2023-02-08T05:15:49.550Z,10.32
2023-02-08T05:19:51.338Z,9.30
2023-02-08T05:23:53.218Z,12.73
2023-02-08T05:27:54.968Z,10.75
2023-02-08T05:31:56.644Z,9.52
2023-02-08T05:35:58.392Z,10.38
2023-02-08T05:40:00.018Z,9.35
2023-02-08T05:44:01.701Z,8.13
2023-02-08T05:48:03.416Z,16.12
2023-02-08T05:52:05.259Z,7.40
2023-02-08T05:56:07.210Z,9.93
2023-02-08T06:00:09.855Z,9.43
2023-02-08T06:04:11.536Z,19.00
2023-02-08T06:08:13.214Z,15.85
2023-02-08T06:12:14.901Z,13.45
2023-02-08T06:16:19.807Z,10.02
2023-02-08T06:20:21.746Z,9.90
2023-02-08T06:24:25.089Z,10.25
2023-02-08T06:28:26.798Z,9.93
2023-02-08T06:32:28.509Z,11.30
2023-02-08T06:36:30.377Z,10.57
2023-02-08T06:40:32.011Z,14.35
2023-02-08T06:44:33.654Z,12.23
2023-02-08T06:48:35.791Z,11.25
2023-02-08T06:52:37.723Z,9.52
2023-02-08T06:56:39.377Z,10.32
2023-02-08T07:00:41.593Z,12.88
2023-02-08T07:04:45.197Z,10.40
2023-02-08T07:08:47.690Z,12.95
2023-02-08T07:12:49.310Z,26.00
2023-02-08T07:16:51.571Z,20.92
2023-02-08T07:20:53.306Z,12.13
2023-02-08T07:24:55.153Z,11.63
2023-02-08T07:28:58.434Z,12.57
2023-02-08T07:33:00.108Z,12.13
2023-02-08T07:37:02.102Z,13.62
2023-02-08T07:41:09.973Z,8.73
2023-02-08T07:45:11.607Z,10.43
2023-02-08T07:49:13.262Z,12.30
2023-02-08T07:53:14.916Z,12.00
2023-02-08T07:57:20.986Z,10.60
2023-02-08T08:01:23.229Z,11.73
2023-02-08T08:05:25.055Z,7.95
2023-02-08T08:09:26.817Z,15.50
2023-02-08T08:13:28.466Z,9.88
2023-02-08T08:17:30.333Z,10.38
2023-02-08T08:21:32.482Z,11.18
2023-02-08T08:25:34.423Z,9.75
2023-02-08T08:29:37.444Z,10.93
2023-02-08T08:33:39.196Z,12.40
2023-02-08T08:37:40.950Z,11.80
2023-02-08T08:41:43.616Z,10.48
2023-02-08T08:45:45.389Z,13.45
2023-02-08T08:49:47.194Z,8.38
2023-02-08T08:53:48.835Z,9.63
2023-02-08T08:57:53.330Z,15.88
2023-02-08T09:01:55.249Z,17.23
2023-02-08T09:05:57.064Z,20.05
2023-02-08T09:09:58.749Z,14.57
2023-02-08T09:14:04.574Z,13.98
2023-02-08T09:18:06.818Z,12.67
2023-02-08T09:22:08.884Z,10.40
2023-02-08T09:26:12.717Z,11.75
2023-02-08T09:30:14.507Z,11.52
2023-02-08T09:34:16.149Z,9.48
2023-02-08T09:38:17.990Z,10.40
2023-02-08T09:42:38.212Z,9.40
2023-02-08T09:46:43.729Z,8.23
2023-02-08T09:50:52.718Z,8.90
2023-02-08T09:55:01.346Z,5.87
2023-02-08T09:59:03.882Z,7.18
2023-02-08T10:03:08.793Z,6.35
2023-02-08T10:07:11.540Z,6.70
2023-02-08T10:11:25.188Z,6.18
2023-02-08T10:15:26.870Z,6.93
2023-02-08T10:19:43.266Z,7.12
2023-02-08T10:24:00.007Z,4.72
2023-02-08T10:28:20.431Z,5.60
2023-02-08T10:32:42.809Z,5.47
2023-02-08T10:36:44.495Z,4.57
2023-02-08T10:40:55.430Z,4.25
2023-02-08T10:45:25.006Z,4.25
2023-02-08T10:49:34.952Z,6.18
2023-02-08T10:53:36.648Z,4.45
2023-02-08T10:57:38.596Z,3.75
2023-02-08T11:01:40.481Z,3.80
2023-02-08T11:05:42.662Z,3.87
2023-02-08T11:09:44.452Z,4.80
2023-02-08T11:13:51.334Z,2.90
2023-02-08T11:17:59.265Z,4.35
2023-02-08T11:22:05.544Z,3.40
2023-02-08T11:26:23.815Z,4.43
2023-02-08T11:30:25.927Z,4.78
2023-02-08T11:34:39.123Z,4.55
2023-02-08T11:38:42.896Z,3.92
2023-02-08T11:42:44.977Z,4.57
2023-02-08T11:46:48.591Z,3.45
2023-02-08T11:50:55.914Z,3.10
2023-02-08T11:55:15.159Z,3.35
2023-02-08T11:59:22.569Z,3.30
2023-02-08T12:03:33.558Z,4.37
2023-02-08T12:08:01.112Z,3.33
2023-02-08T12:12:21.506Z,4.62
2023-02-08T12:16:50.995Z,3.22
2023-02-08T12:21:24.404Z,2.75
2023-02-08T12:25:32.901Z,3.83
2023-02-08T12:29:47.823Z,3.08
2023-02-08T12:34:10.770Z,3.70
2023-02-08T12:38:49.877Z,3.03
2023-02-08T12:42:56.205Z,5.95
2023-02-08T12:47:15.253Z,5.77
2023-02-08T12:51:34.786Z,3.25
2023-02-08T12:55:40.541Z,4.70
2023-02-08T13:00:25.474Z,3.65
2023-02-08T13:04:40.926Z,3.70
2023-02-08T13:08:55.002Z,4.12
2023-02-08T13:13:19.746Z,4.50
2023-02-08T13:17:28.064Z,5.32
2023-02-08T13:21:37.834Z,5.70
2023-02-08T13:25:41.970Z,3.25
2023-02-08T13:29:50.554Z,3.15
2023-02-08T13:34:02.459Z,3.17
2023-02-08T13:38:07.860Z,3.67
2023-02-08T13:42:28.509Z,3.45
2023-02-08T13:46:38.889Z,5.18
2023-02-08T13:50:56.968Z,4.50
2023-02-08T13:55:31.827Z,3.45
2023-02-08T13:59:41.781Z,3.60
2023-02-08T14:03:43.727Z,4.70
2023-02-08T14:07:47.662Z,3.97
2023-02-08T14:12:22.679Z,4.22
2023-02-08T14:16:35.770Z,3.33
2023-02-08T14:20:41.714Z,3.37
2023-02-08T14:24:48.129Z,3.58
2023-02-08T14:28:55.911Z,4.90
2023-02-08T14:33:07.380Z,4.22
2023-02-08T14:37:18.164Z,2.90
2023-02-08T14:41:49.164Z,4.03
2023-02-08T14:45:53.226Z,6.10
2023-02-08T14:50:04.374Z,3.20
2023-02-08T14:54:23.312Z,3.10
2023-02-08T14:58:30.843Z,4.87
2023-02-08T15:02:34.046Z,4.80
2023-02-08T15:06:38.569Z,4.37
2023-02-08T15:10:45.379Z,4.12
2023-02-08T15:14:47.353Z,4.87
2023-02-08T15:18:51.006Z,4.95
2023-02-08T15:23:01.772Z,7.28
2023-02-08T15:27:04.595Z,3.47
2023-02-08T15:31:14.723Z,4.87
2023-02-08T15:35:24.532Z,3.42
2023-02-08T15:39:41.095Z,6.30
2023-02-08T15:43:43.567Z,3.90
2023-02-08T15:47:45.534Z,4.70
2023-02-08T15:51:48.596Z,2.92
2023-02-08T15:56:02.438Z,5.75
2023-02-08T16:00:12.092Z,5.65
2023-02-08T16:04:13.695Z,5.12
2023-02-08T16:08:24.037Z,4.60
2023-02-08T16:12:27.626Z,3.05
2023-02-08T16:16:35.046Z,3.85
2023-02-08T16:20:36.978Z,3.58
2023-02-08T16:24:38.648Z,4.53
2023-02-08T16:28:40.370Z,6.35
2023-02-08T16:32:42.687Z,4.45
2023-02-08T16:36:47.675Z,4.20
2023-02-08T16:40:54.363Z,9.02
2023-02-08T16:45:18.110Z,4.22
2023-02-08T16:49:19.917Z,4.65
2023-02-08T16:53:25.969Z,6.12
2023-02-08T16:57:53.409Z,4.47
2023-02-08T17:01:57.348Z,3.90
2023-02-08T17:06:00.932Z,4.10
2023-02-08T17:10:07.340Z,2.80
2023-02-08T17:14:10.010Z,3.35
2023-02-08T17:18:13.231Z,4.43
2023-02-08T17:22:14.925Z,2.33
2023-02-08T17:26:28.431Z,2.33
2023-02-08T17:30:34.866Z,4.45
2023-02-08T17:34:36.577Z,13.65
2023-02-08T17:38:39.708Z,7.05
2023-02-08T17:42:41.447Z,5.00
2023-02-08T17:46:43.098Z,5.25
2023-02-08T17:50:50.662Z,5.78
2023-02-08T17:54:52.261Z,18.62
2023-02-08T17:58:55.184Z,18.33
2023-02-08T18:02:59.052Z,14.87
2023-02-08T18:07:02.141Z,10.30
2023-02-08T18:11:06.312Z,9.55
2023-02-08T18:15:11.915Z,9.77
2023-02-08T18:19:13.548Z,8.05
2023-02-08T18:23:15.261Z,10.32
2023-02-08T18:27:16.937Z,6.50
2023-02-08T18:31:22.550Z,9.43
2023-02-08T18:35:24.342Z,10.70
2023-02-08T18:39:26.494Z,7.40
2023-02-08T18:43:28.135Z,5.80
2023-02-08T18:47:29.818Z,4.87
2023-02-08T18:51:31.703Z,4.18
2023-02-08T18:55:33.472Z,4.68
2023-02-08T18:59:35.308Z,8.30
2023-02-08T19:03:37.730Z,3.72
2023-02-08T19:07:39.981Z,9.65
2023-02-08T19:11:43.902Z,11.65
2023-02-08T19:15:45.962Z,8.13
2023-02-08T19:19:47.836Z,7.35
2023-02-08T19:23:54.673Z,6.87
2023-02-08T19:31:58.461Z,9.35
2023-02-08T19:36:08.382Z,8.68
2023-02-08T19:40:11.147Z,6.87
2023-02-08T19:44:15.889Z,9.90
2023-02-08T19:48:17.717Z,7.75
2023-02-08T19:52:22.361Z,7.82
2023-02-08T19:56:23.999Z,7.35
2023-02-08T20:00:25.895Z,7.12
2023-02-08T20:04:27.577Z,8.93
2023-02-08T20:08:29.266Z,7.15
2023-02-08T20:12:30.935Z,7.43
2023-02-08T20:16:33.776Z,7.22
2023-02-08T20:20:36.371Z,5.55
2023-02-08T20:24:38.086Z,8.55
2023-02-08T20:28:44.260Z,5.80
2023-02-08T20:32:47.062Z,9.37
2023-02-08T20:37:05.819Z,5.20
2023-02-08T20:41:11.488Z,7.32
2023-02-08T20:45:15.052Z,7.18
2023-02-08T20:49:22.037Z,6.68
2023-02-08T20:53:23.697Z,6.62
2023-02-08T20:57:25.642Z,7.87
2023-02-08T21:01:28.411Z,5.47
2023-02-08T21:05:30.369Z,5.40
2023-02-08T21:09:32.324Z,9.23
2023-02-08T21:13:34.045Z,5.30
2023-02-08T21:17:38.640Z,10.57
2023-02-08T21:21:42.269Z,9.40
2023-02-08T21:25:44.681Z,6.47
2023-02-08T21:29:50.409Z,10.20
2023-02-08T21:33:52.462Z,7.85
2023-02-08T21:37:54.101Z,7.68
2023-02-08T21:41:55.743Z,6.95
2023-02-08T21:46:02.340Z,7.62
2023-02-08T21:50:22.820Z,7.55
2023-02-08T21:54:42.383Z,5.65
2023-02-08T21:58:44.060Z,7.00
2023-02-08T22:02:45.743Z,7.45
2023-02-08T22:06:50.186Z,10.52
2023-02-08T22:10:58.350Z,7.75
2023-02-08T22:15:00.384Z,8.45
2023-02-08T22:19:02.153Z,6.20
2023-02-08T22:23:04.599Z,6.95
2023-02-08T22:27:06.247Z,8.32
2023-02-08T22:31:07.983Z,6.10
2023-02-08T22:35:11.169Z,7.37
2023-02-08T22:39:12.891Z,6.32
2023-02-08T22:43:14.549Z,8.75
2023-02-08T22:47:16.504Z,7.72
2023-02-08T22:51:19.132Z,7.57
2023-02-08T22:55:20.807Z,9.65
2023-02-08T22:59:22.538Z,6.93
2023-02-08T23:03:24.625Z,7.82
2023-02-08T23:07:26.353Z,9.35
2023-02-08T23:11:28.200Z,8.68
2023-02-08T23:15:30.254Z,8.13
2023-02-08T23:19:31.904Z,8.70
2023-02-08T23:23:33.567Z,9.55
2023-02-08T23:27:35.325Z,8.93
2023-02-08T23:31:40.231Z,8.55
2023-02-08T23:35:42.046Z,10.15
2023-02-08T23:39:43.744Z,8.00
2023-02-08T23:43:45.704Z,11.07
2023-02-08T23:47:47.336Z,10.43
2023-02-08T23:51:48.972Z,9.43
2023-02-08T23:55:50.643Z,10.48
2023-02-08T23:59:52.286Z,10.50
